createdAt,value
2019-05-26T00:02:08.449Z,100880.72
2019-05-26T00:04:41.383Z,100881.61
2019-05-26T00:07:27.944Z,100878.50
2019-05-26T00:09:48.996Z,100879.82
2019-05-26T00:12:22.161Z,100875.42
2019-05-26T00:14:55.061Z,100877.62
2019-05-26T00:17:28.021Z,100880.25
2019-05-26T00:20:00.857Z,100877.16
2019-05-26T00:22:34.305Z,100875.40
2019-05-26T00:25:07.626Z,100877.61
2019-05-26T00:27:40.564Z,100873.66
2019-05-26T00:30:13.757Z,100871.91
2019-05-26T00:32:46.780Z,100873.22
2019-05-26T00:35:19.665Z,100876.72
2019-05-26T00:37:52.630Z,100874.54
2019-05-26T00:40:25.718Z,100879.38
2019-05-26T00:42:58.648Z,100885.09
2019-05-26T00:45:31.571Z,100881.12
2019-05-26T00:48:04.505Z,100878.95
2019-05-26T00:50:37.452Z,100877.66
2019-05-26T00:53:10.373Z,100872.38
2019-05-26T00:55:43.380Z,100877.64
2019-05-26T00:58:16.251Z,100874.14
2019-05-26T01:00:49.215Z,100875.91
2019-05-26T01:03:22.078Z,100878.98
2019-05-26T01:05:54.987Z,100876.36
2019-05-26T01:08:27.866Z,100880.73
2019-05-26T01:11:02.123Z,100874.61
2019-05-26T01:13:36.456Z,100869.31
2019-05-26T01:16:10.696Z,100872.39
2019-05-26T01:18:43.613Z,100873.70
2019-05-26T01:21:16.994Z,100871.08
2019-05-26T01:23:49.916Z,100873.33
2019-05-26T01:26:24.171Z,100874.64
2019-05-26T01:28:57.222Z,100875.09
2019-05-26T01:31:30.158Z,100875.52
2019-05-26T01:34:03.079Z,100875.53
2019-05-26T01:36:36.234Z,100876.84
2019-05-26T01:39:09.858Z,100876.84
2019-05-26T01:41:42.729Z,100867.59
2019-05-26T01:44:15.617Z,100869.80
2019-05-26T01:46:49.384Z,100868.50
2019-05-26T01:49:23.244Z,100871.56
2019-05-26T01:51:56.486Z,100868.94
2019-05-26T01:54:29.342Z,100873.36
2019-05-26T01:57:02.145Z,100874.20
2019-05-26T01:59:35.132Z,100870.69
2019-05-26T02:02:08.010Z,100867.61
2019-05-26T02:04:40.847Z,100862.35
2019-05-26T02:07:13.793Z,100857.52
2019-05-26T02:09:46.706Z,100852.67
2019-05-26T02:12:20.556Z,100851.77
2019-05-26T02:14:53.438Z,100858.39
2019-05-26T02:17:26.465Z,100864.09
2019-05-26T02:19:59.319Z,100867.19
2019-05-26T02:22:32.281Z,100867.64
2019-05-26T02:25:05.785Z,100871.14
2019-05-26T02:27:38.602Z,100861.89
2019-05-26T02:30:13.166Z,100856.63
2019-05-26T02:32:45.995Z,100849.59
2019-05-26T02:35:19.586Z,100858.80
2019-05-26T02:37:52.430Z,100863.20
2019-05-26T02:40:25.750Z,100855.73
2019-05-26T02:42:59.504Z,100861.47
2019-05-26T02:45:32.838Z,100861.46
2019-05-26T02:48:06.320Z,100857.95
2019-05-26T02:50:39.158Z,100857.92
2019-05-26T02:53:11.952Z,100868.05
2019-05-26T02:55:44.774Z,100861.47
2019-05-26T02:58:17.560Z,100856.19
2019-05-26T03:00:50.357Z,100863.20
2019-05-26T03:03:23.439Z,100850.02
2019-05-26T03:05:57.008Z,100848.27
2019-05-26T03:08:30.576Z,100854.41
2019-05-26T03:11:04.535Z,100848.70
2019-05-26T03:13:40.010Z,100850.46
2019-05-26T03:16:13.531Z,100850.87
2019-05-26T03:18:48.099Z,100840.31
2019-05-26T03:21:22.621Z,100848.24
2019-05-26T03:23:56.513Z,100855.72
2019-05-26T03:26:31.098Z,100845.17
2019-05-26T03:29:04.279Z,100839.89
2019-05-26T03:31:37.172Z,100851.33
2019-05-26T03:34:09.973Z,100857.48
2019-05-26T03:36:42.889Z,100847.83
2019-05-26T03:39:15.699Z,100847.80
2019-05-26T03:41:48.553Z,100850.01
2019-05-26T03:44:22.365Z,100848.27
2019-05-26T03:46:55.240Z,100849.58
2019-05-26T03:49:29.155Z,100852.21
2019-05-26T03:52:02.123Z,100846.05
2019-05-26T03:54:35.076Z,100835.05
2019-05-26T03:57:08.977Z,100841.21
2019-05-26T03:59:42.090Z,100850.88
2019-05-26T04:02:14.962Z,100854.41
2019-05-26T04:04:47.781Z,100858.81
2019-05-26T04:07:20.573Z,100856.17
2019-05-26T04:10:04.788Z,100857.91
2019-05-26T04:12:28.082Z,100855.72
2019-05-26T04:15:00.899Z,100858.80
2019-05-26T04:17:33.833Z,100852.62
2019-05-26T04:20:07.951Z,100845.15
2019-05-26T04:22:40.783Z,100853.07
2019-05-26T04:25:13.801Z,100850.86
2019-05-26T04:27:46.598Z,100854.39
2019-05-26T04:30:19.464Z,100852.17
2019-05-26T04:32:52.290Z,100858.80
2019-05-26T04:35:25.270Z,100855.25
2019-05-26T04:37:58.177Z,100853.91
2019-05-26T04:40:30.989Z,100856.12
2019-05-26T04:43:03.913Z,100854.34
2019-05-26T04:45:36.789Z,100852.58
2019-05-26T04:48:09.642Z,100850.33
2019-05-26T04:50:43.942Z,100844.17
2019-05-26T04:53:17.154Z,100843.70
2019-05-26T04:55:49.936Z,100838.86
2019-05-26T04:58:22.784Z,100845.88
2019-05-26T05:00:55.661Z,100842.80
2019-05-26T05:03:28.626Z,100848.05
2019-05-26T05:06:01.557Z,100849.78
2019-05-26T05:08:34.524Z,100848.86
2019-05-26T05:11:07.560Z,100849.30
2019-05-26T05:13:40.425Z,100852.84
2019-05-26T05:16:13.412Z,100847.95
2019-05-26T05:18:46.360Z,100850.09
2019-05-26T05:21:19.342Z,100850.53
2019-05-26T05:23:52.219Z,100851.86
2019-05-26T05:26:25.150Z,100857.55
2019-05-26T05:28:57.965Z,100858.75
2019-05-26T05:31:30.971Z,100859.55
2019-05-26T05:34:04.081Z,100855.92
2019-05-26T05:36:37.253Z,100852.83
2019-05-26T05:39:10.615Z,100855.48
2019-05-26T05:41:43.834Z,100854.70
2019-05-26T05:44:16.649Z,100859.11
2019-05-26T05:46:49.620Z,100856.47
2019-05-26T05:49:22.480Z,100862.16
2019-05-26T05:51:56.402Z,100859.90
2019-05-26T05:54:29.323Z,100862.98
2019-05-26T05:57:02.153Z,100854.99
2019-05-26T05:59:35.011Z,100856.72
2019-05-26T06:02:07.924Z,100855.82
2019-05-26T06:04:40.771Z,100861.84
2019-05-26T06:07:13.730Z,100856.78
2019-05-26T06:09:46.548Z,100855.02
2019-05-26T06:12:19.882Z,100854.95
2019-05-26T06:14:53.949Z,100853.17
2019-05-26T06:17:26.842Z,100854.05
2019-05-26T06:19:59.756Z,100851.03
2019-05-26T06:22:32.707Z,100854.22
2019-05-26T06:25:06.286Z,100856.34
2019-05-26T06:27:39.198Z,100855.89
2019-05-26T06:30:13.525Z,100853.66
2019-05-26T06:32:46.453Z,100852.41
2019-05-26T06:35:19.733Z,100849.44
2019-05-26T06:37:52.630Z,100848.64
2019-05-26T06:40:25.484Z,100853.02
2019-05-26T06:42:58.830Z,100852.42
2019-05-26T06:45:31.768Z,100851.94
2019-05-26T06:48:05.648Z,100854.06
2019-05-26T06:50:39.470Z,100850.43
2019-05-26T06:53:12.312Z,100851.55
2019-05-26T06:55:45.358Z,100847.37
2019-05-26T06:58:18.362Z,100847.63
2019-05-26T07:00:52.719Z,100847.51
2019-05-26T07:03:25.762Z,100854.31
2019-05-26T07:05:59.453Z,100849.47
2019-05-26T07:08:32.371Z,100839.91
2019-05-26T07:11:05.457Z,100839.08
2019-05-26T07:13:38.368Z,100843.58
2019-05-26T07:16:11.251Z,100838.73
2019-05-26T07:18:44.150Z,100837.16
2019-05-26T07:21:17.067Z,100830.63
2019-05-26T07:23:49.920Z,100837.33
2019-05-26T07:26:22.859Z,100831.83
2019-05-26T07:28:55.758Z,100834.22
2019-05-26T07:31:30.133Z,100829.06
2019-05-26T07:34:03.110Z,100833.39
2019-05-26T07:36:36.287Z,100830.85
2019-05-26T07:39:10.691Z,100831.08
2019-05-26T07:41:43.482Z,100830.66
2019-05-26T07:44:17.498Z,100830.59
2019-05-26T07:46:50.428Z,100839.70
2019-05-26T07:49:23.375Z,100835.11
2019-05-26T15:58:05.872Z,100437.30
2019-05-26T16:00:39.122Z,100431.31
2019-05-26T16:03:12.425Z,100426.03
2019-05-26T16:05:45.589Z,100431.05
2019-05-26T16:08:18.704Z,100429.49
2019-05-26T16:10:52.143Z,100427.84
2019-05-26T16:13:25.081Z,100433.33
2019-05-26T16:15:58.021Z,100426.50
2019-05-26T16:18:31.060Z,100439.91
2019-05-26T16:21:03.893Z,100441.66
2019-05-26T16:23:37.176Z,100440.97
2019-05-26T16:26:10.069Z,100440.80
2019-05-26T16:28:43.217Z,100437.41
2019-05-26T16:31:17.760Z,100437.17
2019-05-26T16:33:50.710Z,100439.57
2019-05-26T16:36:24.141Z,100437.23
2019-05-26T16:39:00.308Z,100430.37
2019-05-26T16:41:33.173Z,100436.94
2019-05-26T16:44:06.712Z,100429.20
2019-05-26T16:46:55.190Z,100430.88
2019-05-26T16:49:14.795Z,100423.77
2019-05-26T16:51:47.815Z,100422.91
2019-05-26T16:54:22.713Z,100419.75
2019-05-26T16:56:55.845Z,100419.34
2019-05-26T16:59:29.360Z,100430.70
2019-05-26T17:02:02.561Z,100425.10
2019-05-26T17:04:35.869Z,100425.47
2019-05-26T17:07:08.823Z,100422.02
2019-05-26T17:09:43.388Z,100420.58
2019-05-26T17:12:16.353Z,100424.23
2019-05-26T17:14:49.287Z,100422.48
2019-05-26T17:17:22.198Z,100420.67
2019-05-26T17:19:55.063Z,100415.13
2019-05-26T17:22:27.931Z,100419.53
2019-05-26T17:25:00.892Z,100411.58
2019-05-26T17:27:33.770Z,100414.56
2019-05-26T17:30:07.621Z,100410.08
2019-05-26T17:32:40.564Z,100412.36
2019-05-26T17:35:13.377Z,100406.75
2019-05-26T17:37:46.300Z,100402.86
2019-05-26T17:40:22.642Z,100409.06
2019-05-26T17:42:55.953Z,100408.54
2019-05-26T17:45:28.854Z,100410.56
2019-05-26T17:48:01.785Z,100410.04
2019-05-26T17:50:34.949Z,100407.70
2019-05-26T17:53:07.796Z,100408.91
2019-05-26T17:55:40.810Z,100408.62
2019-05-26T17:58:14.302Z,100405.35
2019-05-26T18:00:47.200Z,100407.84
2019-05-26T18:03:20.298Z,100415.27
2019-05-26T18:05:53.196Z,100415.19
2019-05-26T18:08:27.109Z,100415.92
2019-05-26T18:10:59.935Z,100412.73
2019-05-26T18:13:32.848Z,100411.70
2019-05-26T18:16:05.769Z,100410.63
2019-05-26T18:18:38.655Z,100413.57
2019-05-26T18:21:11.530Z,100407.14
2019-05-26T18:23:44.502Z,100414.03
2019-05-26T18:26:17.460Z,100416.55
2019-05-26T18:28:50.329Z,100411.42
2019-05-26T18:31:23.228Z,100415.59
2019-05-26T18:33:56.101Z,100408.70
2019-05-26T18:36:29.018Z,100425.30
2019-05-26T18:39:01.935Z,100421.34
2019-05-26T18:41:35.313Z,100420.58
2019-05-26T18:44:08.157Z,100421.64
2019-05-26T18:46:41.098Z,100420.09
2019-05-26T18:49:13.977Z,100428.77
2019-05-26T18:51:46.881Z,100426.55
2019-05-26T18:54:19.769Z,100424.03
2019-05-26T18:56:52.698Z,100428.28
2019-05-26T18:59:25.549Z,100429.30
2019-05-26T19:01:58.469Z,100430.17
2019-05-26T19:04:31.310Z,100425.17
2019-05-26T19:07:04.214Z,100427.84
2019-05-26T19:09:37.323Z,100431.85
2019-05-26T19:12:10.563Z,100430.19
2019-05-26T19:14:43.390Z,100434.70
2019-05-26T19:17:17.622Z,100432.09
2019-05-26T19:19:50.619Z,100429.41
2019-05-26T19:22:24.224Z,100435.36
2019-05-26T19:24:57.311Z,100430.98
2019-05-26T19:27:30.469Z,100430.76
2019-05-26T19:30:03.690Z,100428.14
2019-05-26T19:32:36.954Z,100430.80
2019-05-26T19:35:10.459Z,100426.52
2019-05-26T19:37:43.433Z,100426.52
2019-05-26T19:40:17.887Z,100430.12
2019-05-26T19:42:52.117Z,100431.96
2019-05-26T19:45:24.933Z,100429.29
2019-05-26T19:47:57.918Z,100424.49
2019-05-26T19:50:30.919Z,100424.56
2019-05-26T19:53:03.789Z,100422.89
2019-05-26T19:55:36.805Z,100423.03
2019-05-26T19:58:09.739Z,100423.03
2019-05-26T20:00:42.952Z,100418.75
2019-05-26T20:03:16.453Z,100414.33
2019-05-26T20:05:49.380Z,100412.95
2019-05-26T20:08:22.205Z,100411.61
2019-05-26T20:10:55.131Z,100415.61
2019-05-26T20:13:28.136Z,100409.40
2019-05-26T20:16:01.164Z,100399.69
2019-05-26T20:18:34.120Z,100406.03
2019-05-26T20:21:07.136Z,100408.80
2019-05-26T20:23:40.071Z,100407.52
2019-05-26T20:26:13.026Z,100404.84
2019-05-26T20:28:46.033Z,100401.38
2019-05-26T20:31:18.860Z,100404.56
2019-05-26T20:33:51.712Z,100403.45
2019-05-26T20:36:24.536Z,100397.23
2019-05-26T20:38:57.348Z,100399.63
2019-05-26T20:41:30.235Z,100400.64
2019-05-26T20:44:03.450Z,100395.38
2019-05-26T20:46:36.354Z,100390.14
2019-05-26T20:49:09.223Z,100396.47
2019-05-26T20:51:42.080Z,100390.41
2019-05-26T20:54:15.076Z,100385.19
2019-05-26T20:56:48.073Z,100383.03
2019-05-26T20:59:21.016Z,100382.16
2019-05-26T21:01:53.973Z,100384.53
2019-05-26T21:04:26.982Z,100387.88
2019-05-26T21:06:59.962Z,100385.38
2019-05-26T21:09:32.916Z,100378.84
2019-05-26T21:12:06.000Z,100373.64
2019-05-26T21:14:38.942Z,100378.27
2019-05-26T21:17:11.795Z,100376.62
2019-05-26T21:19:44.689Z,100378.48
2019-05-26T21:22:18.824Z,100379.12
2019-05-26T21:24:51.694Z,100377.99
2019-05-26T21:27:24.598Z,100379.37
2019-05-26T21:29:57.474Z,100376.08
2019-05-26T21:32:31.395Z,100375.83
2019-05-26T21:35:05.006Z,100377.41
2019-05-26T21:37:37.973Z,100373.65
2019-05-26T21:40:11.994Z,100375.14
2019-05-26T21:42:47.320Z,100373.47
2019-05-26T21:45:20.283Z,100376.37
2019-05-26T21:47:53.207Z,100375.66
2019-05-26T21:50:26.503Z,100374.44
2019-05-26T21:52:59.502Z,100374.17
2019-05-26T21:55:32.337Z,100380.58
2019-05-26T21:58:05.245Z,100375.85
2019-05-26T22:00:44.193Z,100368.55
2019-05-26T22:03:17.217Z,100368.33
2019-05-26T22:05:50.105Z,100368.05
2019-05-26T22:08:23.060Z,100366.87
2019-05-26T22:10:55.991Z,100369.30
2019-05-26T22:13:28.877Z,100368.95
2019-05-26T22:16:01.835Z,100369.02
2019-05-26T22:18:34.751Z,100367.41
2019-05-26T22:21:09.103Z,100361.29
2019-05-26T22:23:41.920Z,100360.56
2019-05-26T22:26:14.713Z,100362.98
2019-05-26T22:28:47.682Z,100356.78
2019-05-26T22:31:20.487Z,100355.55
2019-05-26T22:33:53.296Z,100348.52
2019-05-26T22:36:26.087Z,100343.64
2019-05-26T22:38:59.013Z,100340.22
2019-05-26T22:41:31.893Z,100334.47
2019-05-26T22:44:04.883Z,100336.82
2019-05-26T22:46:37.737Z,100336.89
2019-05-26T22:49:10.597Z,100339.20
2019-05-26T22:51:43.447Z,100340.15
2019-05-26T22:54:16.411Z,100335.31
2019-05-26T22:56:49.396Z,100332.37
2019-05-26T22:59:22.394Z,100330.72
2019-05-26T23:01:55.324Z,100325.47
2019-05-26T23:04:28.509Z,100325.09
2019-05-26T23:07:01.409Z,100325.54
2019-05-26T23:09:34.328Z,100324.21
2019-05-26T23:12:08.707Z,100325.58
2019-05-26T23:14:42.129Z,100329.56
2019-05-26T23:17:15.124Z,100327.33
2019-05-26T23:19:50.415Z,100326.94
2019-05-26T23:22:24.322Z,100326.06
2019-05-26T23:24:57.504Z,100323.92
2019-05-26T23:27:31.093Z,100319.94
2019-05-26T23:30:05.021Z,100320.45
2019-05-26T23:32:38.402Z,100318.35
2019-05-26T23:35:12.813Z,100320.10
2019-05-26T23:37:46.025Z,100313.94
2019-05-26T23:40:19.777Z,100317.52
2019-05-26T23:42:54.136Z,100314.89
2019-05-26T23:45:27.529Z,100316.64
2019-05-26T23:48:00.660Z,100313.17
2019-05-26T23:50:33.421Z,100316.80
2019-05-26T23:53:06.301Z,100312.45
2019-05-26T23:55:39.133Z,100309.97
2019-05-26T23:58:12.050Z,100310.91
